Time;durP1;ratioP1;P1;durP2;ratioP2;P2;SDS_P1;SDS_P2;PMS_P1;PMS_P2;Temp;Humidity;BMP_temperature;BMP_pressure;BME280_temperature;BME280_humidity;BME280_pressure;Samples;Min_cycle;Max_cycle;Signal;HPM_P1;HPM_P2
2022/05/31 00:01:49;;;;;;;4.00;3.30;;;;;;;15.13;54.88;99494.63;5009131;28;20038;-83
2022/05/31 00:04:15;;;;;;;4.97;3.00;;;;;;;15.12;55.04;99491.09;4999987;28;20034;-82
2022/05/31 00:06:41;;;;;;;6.57;3.70;;;;;;;15.14;54.90;99490.94;5000688;28;20036;-83
2022/05/31 00:09:06;;;;;;;4.85;3.40;;;;;;;15.12;54.93;99492.94;5009149;28;20034;-83
2022/05/31 00:11:32;;;;;;;5.45;3.60;;;;;;;15.10;54.51;99484.22;5004101;28;20087;-84
2022/05/31 00:13:57;;;;;;;4.68;3.70;;;;;;;15.08;54.11;99481.69;4999954;28;20451;-82
2022/05/31 00:16:22;;;;;;;5.20;3.97;;;;;;;15.07;54.85;99480.03;4999172;28;20053;-82
2022/05/31 00:18:47;;;;;;;5.07;3.78;;;;;;;15.09;54.92;99479.84;5017896;28;20045;-82
2022/05/31 00:21:13;;;;;;;4.32;3.70;;;;;;;15.08;54.99;99470.09;5010438;28;20468;-82
2022/05/31 00:23:40;;;;;;;5.00;3.70;;;;;;;15.10;54.95;99476.13;5010143;28;20041;-82
2022/05/31 00:26:05;;;;;;;5.18;3.25;;;;;;;15.11;54.42;99475.97;5008640;28;20058;-83
2022/05/31 00:28:31;;;;;;;5.75;3.88;;;;;;;15.12;54.44;99482.19;4998858;28;20036;-82
2022/05/31 00:30:56;;;;;;;6.63;4.35;;;;;;;15.10;54.42;99476.13;5008331;28;20048;-83
2022/05/31 00:33:22;;;;;;;5.20;4.28;;;;;;;15.07;54.58;99471.09;5008644;28;20656;-82
2022/05/31 00:35:49;;;;;;;5.38;4.20;;;;;;;15.06;54.91;99467.56;5000737;28;20113;-82
2022/05/31 00:38:15;;;;;;;6.00;4.28;;;;;;;15.06;54.42;99470.28;5004123;28;20029;-82
2022/05/31 00:40:41;;;;;;;5.90;4.03;;;;;;;15.05;54.62;99467.75;4982926;28;20095;-83
2022/05/31 00:43:18;;;;;;;6.38;4.15;;;;;;;15.03;54.36;99462.56;4999564;28;20025;-82
2022/05/31 00:45:59;;;;;;;5.25;4.07;;;;;;;15.03;54.09;99461.72;5001200;28;20041;-82
2022/05/31 00:48:26;;;;;;;4.72;4.22;;;;;;;15.05;54.61;99470.44;4990694;28;20472;-82
2022/05/31 00:50:56;;;;;;;4.90;4.07;;;;;;;15.05;54.36;99462.38;5014957;28;20117;-83
2022/05/31 00:53:28;;;;;;;5.10;4.10;;;;;;;15.03;54.83;99467.94;4986629;28;20030;-82
2022/05/31 00:55:56;;;;;;;6.30;4.28;;;;;;;15.05;54.67;99463.22;4980189;28;20084;-82
2022/05/31 00:58:25;;;;;;;4.82;4.32;;;;;;;15.05;54.08;99462.38;4993404;28;20092;-84
2022/05/31 01:00:51;;;;;;;5.85;4.40;;;;;;;15.04;54.94;99458.84;5015611;28;20033;-83
2022/05/31 01:03:19;;;;;;;4.97;4.25;;;;;;;15.04;54.74;99455.31;5003199;28;20076;-83
2022/05/31 01:05:45;;;;;;;5.05;4.30;;;;;;;15.03;55.04;99456.31;5009425;28;20484;-82
2022/05/31 01:08:11;;;;;;;4.43;4.03;;;;;;;15.04;54.48;99452.63;5002109;28;20025;-84
2022/05/31 01:10:36;;;;;;;5.72;3.90;;;;;;;15.04;55.41;99450.75;5002911;28;20030;-83
2022/05/31 01:13:02;;;;;;;5.40;4.03;;;;;;;15.04;54.94;99452.63;5002763;28;20033;-84
2022/05/31 01:15:28;;;;;;;4.80;4.25;;;;;;;15.05;54.73;99451.59;4999733;28;20578;-82
2022/05/31 01:17:53;;;;;;;4.85;3.92;;;;;;;15.06;54.56;99450.59;5002999;28;20484;-82
2022/05/31 01:20:21;;;;;;;4.70;4.22;;;;;;;15.03;54.94;99442.88;5000662;28;20077;-85
2022/05/31 01:22:50;;;;;;;4.60;4.03;;;;;;;15.04;54.71;99439.16;5000622;28;20030;-83
2022/05/31 01:25:21;;;;;;;5.80;4.25;;;;;;;15.01;54.25;99444.91;5000881;28;20813;-82
2022/05/31 01:28:14;;;;;;;6.32;4.15;;;;;;;15.02;54.21;99443.88;5003757;28;20033;-83
2022/05/31 01:30:43;;;;;;;5.10;4.13;;;;;;;15.02;54.05;99438.50;5004017;28;20036;-82
2022/05/31 01:33:13;;;;;;;5.18;4.07;;;;;;;15.01;54.44;99443.03;5002611;28;20033;-84
2022/05/31 01:35:39;;;;;;;4.70;4.10;;;;;;;15.00;53.90;99432.44;4985729;28;20034;-83
2022/05/31 01:38:07;;;;;;;5.25;3.92;;;;;;;15.00;53.93;99433.28;5004933;28;20365;-82
2022/05/31 01:40:49;;;;;;;4.10;3.67;;;;;;;14.99;53.42;99423.53;5008785;28;20073;-83
2022/05/31 01:43:15;;;;;;;5.00;3.60;;;;;;;15.00;54.60;99413.59;5001078;28;20069;-83
2022/05/31 01:45:46;;;;;;;4.43;4.03;;;;;;;15.00;54.21;99427.06;4991328;28;20068;-83
2022/05/31 01:48:12;;;;;;;5.53;3.97;;;;;;;14.99;54.54;99418.16;5006758;28;20029;-82
2022/05/31 01:50:37;;;;;;;5.10;4.00;;;;;;;14.95;54.11;99414.13;4998771;28;20029;-85
2022/05/31 01:53:04;;;;;;;6.07;3.70;;;;;;;14.97;54.37;99406.72;5008697;28;20079;-82
2022/05/31 01:55:30;;;;;;;4.45;3.65;;;;;;;15.00;53.94;99416.28;5007332;28;20484;-82
2022/05/31 01:57:59;;;;;;;5.80;3.70;;;;;;;14.99;54.72;99411.91;4990794;28;20037;-84
2022/05/31 02:00:24;;;;;;;5.22;3.85;;;;;;;14.98;54.17;99412.94;5006764;28;20084;-84
2022/05/31 02:02:51;;;;;;;4.15;3.70;;;;;;;14.97;53.91;99412.09;5007438;28;20026;-82
2022/05/31 02:05:17;;;;;;;4.85;3.75;;;;;;;14.96;53.91;99409.59;5006117;28;20049;-82
2022/05/31 02:07:51;;;;;;;3.72;3.28;;;;;;;14.96;53.31;99406.91;4991095;28;20513;-83
2022/05/31 02:10:17;;;;;;;4.72;3.80;;;;;;;14.96;53.22;99406.91;5005687;28;20029;-81
2022/05/31 02:12:42;;;;;;;4.68;3.53;;;;;;;14.94;53.74;99400.84;4991080;28;20105;-82
2022/05/31 02:15:08;;;;;;;5.20;3.83;;;;;;;14.93;53.99;99412.66;5007147;28;20061;-83
2022/05/31 02:17:33;;;;;;;4.72;3.65;;;;;;;14.89;54.01;99408.63;5001410;28;20102;-83
2022/05/31 02:19:58;;;;;;;3.83;3.42;;;;;;;14.86;53.86;99398.22;5014519;28;20034;-82
2022/05/31 02:22:26;;;;;;;4.00;3.38;;;;;;;14.84;54.41;99411.03;5005827;28;20415;-82
2022/05/31 02:24:51;;;;;;;4.65;3.58;;;;;;;14.87;54.05;99403.44;5010766;28;20052;-83
2022/05/31 02:27:17;;;;;;;3.78;3.33;;;;;;;14.87;54.51;99405.28;5001622;28;20034;-83
2022/05/31 02:29:42;;;;;;;3.40;3.10;;;;;;;14.85;54.27;99410.00;5000442;28;20113;-82
2022/05/31 02:32:10;;;;;;;3.72;3.22;;;;;;;14.85;54.71;99402.78;5012391;28;20038;-82
2022/05/31 02:34:41;;;;;;;3.60;3.17;;;;;;;14.76;54.88;99399.31;5011222;28;20489;-82
2022/05/31 02:37:07;;;;;;;4.55;3.30;;;;;;;14.76;55.04;99402.00;5011285;28;20092;-82
2022/05/31 02:39:32;;;;;;;3.53;3.13;;;;;;;14.82;55.86;99395.06;4994913;28;20472;-84
2022/05/31 02:41:58;;;;;;;3.33;2.95;;;;;;;14.83;55.37;99394.03;5004694;28;20030;-82
2022/05/31 02:44:24;;;;;;;5.15;3.03;;;;;;;14.82;55.36;99400.44;5003543;28;20396;-82
2022/05/31 02:46:50;;;;;;;4.60;3.25;;;;;;;14.83;55.98;99396.72;5003516;28;20186;-82
2022/05/31 02:49:15;;;;;;;3.72;3.33;;;;;;;14.78;55.45;99399.97;5003337;28;20034;-82
2022/05/31 02:51:43;;;;;;;3.85;3.20;;;;;;;14.72;55.00;99389.06;5006087;28;20029;-83
2022/05/31 02:54:10;;;;;;;4.78;3.22;;;;;;;14.74;54.91;99392.41;4999997;28;20049;-83
2022/05/31 02:56:35;;;;;;;3.47;2.95;;;;;;;14.75;55.16;99392.25;5003638;28;20945;-82
2022/05/31 02:59:01;;;;;;;5.28;3.08;;;;;;;14.77;55.35;99392.91;5010437;28;20026;-83
2022/05/31 03:01:35;;;;;;;3.50;3.20;;;;;;;14.74;55.39;99385.19;5003560;28;20112;-83
2022/05/31 03:04:00;;;;;;;5.72;3.30;;;;;;;14.75;54.88;99386.88;5010087;28;20547;-84
2022/05/31 03:06:26;;;;;;;3.10;2.80;;;;;;;14.78;55.01;99383.81;4999367;28;20080;-83
2022/05/31 03:08:51;;;;;;;3.67;3.00;;;;;;;14.77;55.19;99386.69;5010463;28;20034;-82
2022/05/31 03:11:24;;;;;;;3.92;3.38;;;;;;;14.75;55.08;99384.16;4994153;28;20036;-83
2022/05/31 03:13:51;;;;;;;3.72;2.65;;;;;;;14.73;55.03;99385.38;5010506;28;20025;-83
2022/05/31 03:16:17;;;;;;;4.05;2.78;;;;;;;14.74;55.01;99381.66;4999996;28;20109;-83
2022/05/31 03:18:50;;;;;;;3.75;2.90;;;;;;;14.73;55.46;99377.28;4993890;28;20168;-83
2022/05/31 03:21:19;;;;;;;3.47;2.80;;;;;;;14.71;55.33;99380.16;4993743;28;20388;-82
2022/05/31 03:23:53;;;;;;;3.67;2.90;;;;;;;14.71;55.08;99371.25;5009930;28;20076;-84
2022/05/31 03:26:20;;;;;;;3.38;3.00;;;;;;;14.70;55.03;99367.72;5009899;28;20053;-82
2022/05/31 03:28:46;;;;;;;2.80;2.50;;;;;;;14.69;54.88;99374.13;5010399;28;20030;-83
2022/05/31 03:31:12;;;;;;;4.18;2.85;;;;;;;14.69;55.16;99370.59;5010591;28;20026;-84
2022/05/31 03:33:37;;;;;;;2.97;2.55;;;;;;;14.65;54.74;99361.16;5002601;28;20033;-83
2022/05/31 03:36:04;;;;;;;3.22;2.75;;;;;;;14.64;54.65;99360.34;5009928;28;20026;-83
2022/05/31 03:38:29;;;;;;;2.75;2.53;;;;;;;14.66;55.06;99365.53;4993742;28;20507;-82
2022/05/31 03:40:58;;;;;;;3.75;2.70;;;;;;;14.65;55.00;99359.31;5011089;28;20136;-83
2022/05/31 03:43:25;;;;;;;4.78;2.90;;;;;;;14.60;54.87;99368.94;5010713;28;20022;-83
2022/05/31 03:45:50;;;;;;;4.40;2.70;;;;;;;14.62;55.33;99365.06;5001786;28;20022;-84
2022/05/31 03:48:16;;;;;;;3.20;2.90;;;;;;;14.60;55.35;99368.94;5001222;28;20483;-83
2022/05/31 03:50:41;;;;;;;3.60;3.30;;;;;;;14.58;55.11;99374.50;4999273;28;20036;-84
2022/05/31 03:53:08;;;;;;;3.58;2.85;;;;;;;14.66;55.57;99371.78;4998465;28;20060;-82
2022/05/31 03:55:38;;;;;;;3.53;2.88;;;;;;;14.60;55.84;99377.00;4992491;28;20026;-82
2022/05/31 03:58:04;;;;;;;4.20;3.15;;;;;;;14.59;56.08;99368.09;4999141;28;20093;-84
2022/05/31 04:00:29;;;;;;;3.70;3.13;;;;;;;14.64;56.89;99364.88;4993496;28;20634;-83
2022/05/31 04:02:55;;;;;;;3.25;2.80;;;;;;;14.60;56.46;99369.78;5009698;28;20034;-85
2022/05/31 04:05:21;;;;;;;3.33;2.78;;;;;;;14.60;56.93;99371.63;5003569;28;20068;-84
2022/05/31 04:07:46;;;;;;;2.72;2.53;;;;;;;14.64;56.78;99367.56;5009602;28;20420;-84
2022/05/31 04:10:11;;;;;;;4.18;3.00;;;;;;;14.64;57.45;99371.09;5000275;28;20034;-85
2022/05/31 04:12:38;;;;;;;3.78;3.00;;;;;;;14.60;57.00;99372.47;4999695;28;20042;-85
2022/05/31 04:15:05;;;;;;;4.25;2.80;;;;;;;14.61;57.32;99363.38;4992901;28;20030;-85
2022/05/31 04:17:30;;;;;;;4.25;3.15;;;;;;;14.62;56.71;99362.38;5008842;28;20068;-84
2022/05/31 04:19:56;;;;;;;4.55;3.20;;;;;;;14.59;57.01;99365.41;5001007;28;20034;-85
2022/05/31 04:22:21;;;;;;;3.78;3.00;;;;;;;14.61;56.81;99376.84;4999425;28;20026;-85
2022/05/31 04:24:46;;;;;;;3.63;3.30;;;;;;;14.68;57.44;99393.97;4994608;28;20049;-85
2022/05/31 04:27:16;;;;;;;4.35;3.40;;;;;;;14.70;58.20;99391.94;4989846;28;20045;-85
2022/05/31 04:29:41;;;;;;;4.40;3.53;;;;;;;14.60;58.31;99377.84;5003877;28;20018;-85
2022/05/31 04:32:07;;;;;;;4.20;3.50;;;;;;;14.67;58.64;99403.06;4994762;28;20162;-85
2022/05/31 04:34:32;;;;;;;4.68;3.90;;;;;;;14.66;59.01;99396.00;4987680;28;20028;-84
2022/05/31 04:36:58;;;;;;;4.35;3.60;;;;;;;14.57;59.20;99391.66;4993679;28;20588;-85
2022/05/31 04:39:23;;;;;;;4.72;3.80;;;;;;;14.39;59.90;99396.44;4987494;28;20042;-85
2022/05/31 04:41:48;;;;;;;5.05;3.67;;;;;;;14.37;60.22;99393.09;4991919;28;20032;-85
2022/05/31 04:44:15;;;;;;;4.95;4.00;;;;;;;14.29;60.82;99388.59;4996486;28;20511;-84
2022/05/31 04:46:42;;;;;;;4.60;4.05;;;;;;;14.37;60.81;99391.25;4987340;28;20487;-85
2022/05/31 04:49:07;;;;;;;4.18;3.85;;;;;;;14.29;60.62;99410.13;4996186;28;20467;-85
2022/05/31 04:51:33;;;;;;;4.50;3.70;;;;;;;13.91;60.97;99402.88;4987355;28;20264;-85
2022/05/31 04:53:58;;;;;;;4.65;3.72;;;;;;;14.10;61.17;99405.97;5000369;28;20365;-84
2022/05/31 04:56:24;;;;;;;4.57;3.95;;;;;;;14.20;61.10;99418.41;5001722;28;20387;-85
2022/05/31 04:58:51;;;;;;;4.90;4.05;;;;;;;14.03;61.38;99417.59;4992417;28;20034;-84
2022/05/31 05:01:17;;;;;;;4.13;3.60;;;;;;;13.99;61.84;99413.59;4997419;28;20030;-85
2022/05/31 05:03:44;;;;;;;5.45;4.10;;;;;;;14.12;61.71;99420.09;5007241;28;20034;-85
2022/05/31 05:06:10;;;;;;;5.65;3.70;;;;;;;14.10;62.17;99423.97;4991933;28;20033;-85
2022/05/31 05:08:36;;;;;;;8.85;4.20;;;;;;;14.11;61.64;99422.94;4998559;28;20030;-84
2022/05/31 05:11:09;;;;;;;4.70;3.65;;;;;;;14.12;62.35;99413.88;4998109;28;20037;-86
2022/05/31 05:13:35;;;;;;;6.35;4.18;;;;;;;14.27;61.55;99414.00;4999349;28;20036;-85
2022/05/31 05:16:00;;;;;;;5.93;4.03;;;;;;;14.37;61.24;99414.63;5008555;28;20037;-84
2022/05/31 05:18:26;;;;;;;5.15;4.25;;;;;;;14.37;61.15;99420.84;4991772;28;20022;-85
2022/05/31 05:20:52;;;;;;;5.63;4.35;;;;;;;14.31;61.24;99423.41;4997278;28;20014;-84
2022/05/31 05:23:17;;;;;;;6.70;4.10;;;;;;;14.40;60.68;99423.19;4990436;28;20036;-85
2022/05/31 05:25:51;;;;;;;5.75;4.53;;;;;;;14.42;61.03;99431.06;4990113;28;20569;-84
2022/05/31 05:31:00;;;;;;;5.15;4.13;;;;;;;14.37;60.29;99433.44;5006283;28;20037;-84
2022/05/31 05:33:27;;;;;;;7.20;4.55;;;;;;;14.28;60.84;99432.66;4999111;28;20127;-84
2022/05/31 05:35:52;;;;;;;5.45;4.50;;;;;;;14.32;60.69;99431.28;4991438;28;20033;-85
2022/05/31 05:38:18;;;;;;;4.53;4.00;;;;;;;14.35;61.33;99430.09;5007352;28;20108;-85
2022/05/31 05:40:43;;;;;;;5.15;4.43;;;;;;;14.40;61.20;99433.09;4999955;28;20506;-84
2022/05/31 05:43:09;;;;;;;9.35;5.90;;;;;;;14.41;61.17;99434.78;5006426;28;20634;-85
2022/05/31 05:45:35;;;;;;;6.18;4.63;;;;;;;14.38;60.99;99427.91;5007280;28;20120;-87
2022/05/31 05:48:01;;;;;;;6.95;4.43;;;;;;;14.37;60.84;99434.28;5007257;28;20053;-86
2022/05/31 05:50:26;;;;;;;5.78;4.22;;;;;;;14.37;61.43;99422.69;4997325;28;20120;-87
2022/05/31 05:53:00;;;;;;;6.95;4.80;;;;;;;14.37;60.97;99428.06;4995153;28;20030;-88
2022/05/31 05:55:26;;;;;;;6.38;4.95;;;;;;;14.37;61.38;99431.59;4994681;28;20076;-85
2022/05/31 05:57:51;;;;;;;7.50;4.72;;;;;;;14.39;61.43;99418.81;4987960;28;20026;-84
2022/05/31 06:00:17;;;;;;;6.70;4.47;;;;;;;14.45;61.38;99425.38;4998342;28;20684;-84
2022/05/31 06:02:46;;;;;;;7.07;4.43;;;;;;;14.49;61.62;99415.94;4987035;28;20030;-85
2022/05/31 06:05:17;;;;;;;7.40;4.82;;;;;;;14.55;61.07;99407.16;4991072;28;20132;-84
2022/05/31 06:07:46;;;;;;;6.85;5.00;;;;;;;14.58;61.14;99416.72;5000955;28;20109;-85
2022/05/31 06:10:24;;;;;;;7.88;4.40;;;;;;;14.62;60.83;99410.81;4988855;28;20456;-86
2022/05/31 06:12:54;;;;;;;5.90;4.55;;;;;;;14.64;60.19;99407.94;5006167;28;20045;-84
2022/05/31 06:15:27;;;;;;;6.05;4.35;;;;;;;14.70;60.69;99408.09;4991087;28;20667;-83
2022/05/31 06:17:55;;;;;;;5.25;3.78;;;;;;;14.71;59.61;99411.63;5007135;28;20030;-85
2022/05/31 06:20:21;;;;;;;6.32;4.03;;;;;;;14.76;60.13;99414.63;4996483;28;20144;-86
2022/05/31 06:22:46;;;;;;;5.13;3.80;;;;;;;14.74;58.07;99412.09;4989281;28;20061;-85
2022/05/31 06:25:14;;;;;;;5.72;3.28;;;;;;;14.75;57.77;99407.56;4989811;28;20133;-86
2022/05/31 06:27:39;;;;;;;4.38;2.80;;;;;;;14.78;58.27;99407.19;4981944;28;20515;-85
2022/05/31 06:30:05;;;;;;;4.95;3.42;;;;;;;14.89;58.35;99411.31;4982040;28;20142;-85
2022/05/31 06:32:30;;;;;;;6.93;3.28;;;;;;;14.97;58.58;99403.19;4989005;28;20196;-84
2022/05/31 06:34:56;;;;;;;5.57;3.40;;;;;;;15.03;58.19;99405.16;4990948;28;20030;-85
2022/05/31 06:37:22;;;;;;;5.22;3.00;;;;;;;15.07;58.53;99409.16;5001352;28;20030;-86
2022/05/31 06:39:47;;;;;;;4.85;3.40;;;;;;;15.14;58.56;99404.75;5002385;28;20453;-86
2022/05/31 06:42:13;;;;;;;4.68;2.97;;;;;;;15.11;58.49;99400.53;4999007;28;20034;-86
2022/05/31 06:44:41;;;;;;;3.85;3.15;;;;;;;15.15;58.29;99401.06;4999923;28;20033;-86
2022/05/31 06:47:08;;;;;;;4.07;2.63;;;;;;;15.20;58.00;99403.19;5005471;28;20468;-85
2022/05/31 06:49:34;;;;;;;4.93;3.15;;;;;;;15.20;58.03;99398.66;5001666;28;20038;-85
2022/05/31 06:57:34;;;;;;;5.85;3.20;;;;;;;15.31;57.80;99400.06;4998510;28;20036;-87
2022/05/31 06:59:59;;;;;;;4.10;3.45;;;;;;;15.28;57.59;99406.66;4999164;28;20030;-87
2022/05/31 07:02:25;;;;;;;6.63;3.72;;;;;;;15.21;57.22;99412.94;4991263;28;20041;-86
2022/05/31 07:04:51;;;;;;;4.60;3.53;;;;;;;15.24;57.95;99408.03;4993433;28;20066;-86
2022/05/31 07:07:16;;;;;;;6.32;3.22;;;;;;;15.28;58.43;99406.66;4987806;28;20125;-85
2022/05/31 07:09:41;;;;;;;4.45;3.45;;;;;;;15.30;58.94;99401.91;5001977;28;20149;-85
2022/05/31 07:12:07;;;;;;;3.47;3.17;;;;;;;15.30;58.51;99415.41;4986500;28;20047;-85
2022/05/31 07:14:32;;;;;;;3.83;3.20;;;;;;;15.33;58.64;99403.41;4993543;28;20126;-85
2022/05/31 07:16:58;;;;;;;4.68;3.47;;;;;;;15.36;58.76;99403.03;4988003;28;20358;-85
2022/05/31 07:19:23;;;;;;;6.80;4.00;;;;;;;15.32;59.30;99413.34;5005591;28;20472;-85
2022/05/31 07:21:48;;;;;;;5.93;3.83;;;;;;;15.29;58.66;99408.34;4990717;28;20379;-84
2022/05/31 07:24:14;;;;;;;4.30;3.55;;;;;;;15.30;59.39;99406.47;4985170;28;20579;-85
2022/05/31 07:26:39;;;;;;;4.03;3.50;;;;;;;15.35;59.68;99404.06;4989179;28;20427;-85
2022/05/31 07:29:05;;;;;;;4.93;3.63;;;;;;;15.36;59.86;99400.34;4999845;28;20030;-83
2022/05/31 07:31:31;;;;;;;5.78;3.70;;;;;;;15.41;59.90;99401.47;4996889;28;20030;-84
2022/05/31 07:33:58;;;;;;;5.20;3.40;;;;;;;15.48;59.66;99404.28;4998262;28;20125;-83
2022/05/31 07:36:23;;;;;;;4.07;3.13;;;;;;;15.54;59.62;99405.41;4994703;28;20030;-85
2022/05/31 07:38:48;;;;;;;3.80;2.65;;;;;;;15.63;59.64;99394.41;5005258;28;20025;-86
2022/05/31 07:41:14;;;;;;;4.40;2.67;;;;;;;15.65;59.50;99395.06;4983217;28;20192;-85
2022/05/31 07:43:39;;;;;;;4.68;3.60;;;;;;;15.58;59.40;99394.09;4982162;28;20128;-83
2022/05/31 07:46:06;;;;;;;5.15;3.35;;;;;;;15.58;59.94;99391.41;4994496;28;20022;-84
2022/05/31 07:48:35;;;;;;;3.50;3.10;;;;;;;15.58;59.10;99395.94;4988416;28;20025;-86
2022/05/31 07:51:00;;;;;;;3.78;3.40;;;;;;;15.57;59.25;99392.38;5003211;28;20471;-83
2022/05/31 07:53:26;;;;;;;3.58;2.95;;;;;;;15.51;58.91;99409.31;4992535;28;20092;-83
2022/05/31 07:56:06;;;;;;;3.92;3.05;;;;;;;15.52;58.66;99399.34;5004257;28;20034;-85
2022/05/31 07:58:32;;;;;;;3.03;2.70;;;;;;;15.51;59.08;99401.22;4988993;28;20068;-86
2022/05/31 08:00:59;;;;;;;3.78;3.00;;;;;;;15.56;58.76;99408.75;4995390;28;20603;-85
2022/05/31 08:03:25;;;;;;;3.20;2.88;;;;;;;15.58;58.62;99404.03;4993419;28;20484;-84
2022/05/31 08:05:50;;;;;;;2.83;2.55;;;;;;;15.57;58.67;99394.25;4990044;28;20028;-84
2022/05/31 08:08:16;;;;;;;5.47;2.78;;;;;;;15.59;58.33;99403.03;5003563;28;20033;-86
2022/05/31 08:10:41;;;;;;;5.97;3.15;;;;;;;15.58;58.39;99399.50;5001834;28;20080;-84
2022/05/31 08:13:06;;;;;;;3.15;2.85;;;;;;;15.59;58.70;99393.06;4996335;28;20053;-84
2022/05/31 08:15:32;;;;;;;2.92;2.70;;;;;;;15.62;57.99;99395.44;5003217;28;20034;-86
2022/05/31 08:17:57;;;;;;;3.40;2.72;;;;;;;15.57;58.43;99395.09;4992801;28;20037;-83
2022/05/31 08:20:22;;;;;;;3.95;2.95;;;;;;;15.50;57.04;99396.00;4999255;28;20067;-84
2022/05/31 08:22:48;;;;;;;6.05;4.00;;;;;;;15.47;57.58;99388.28;4986875;28;20431;-83
2022/05/31 08:25:14;;;;;;;4.85;3.28;;;;;;;15.30;57.54;99391.16;5008916;28;20046;-83
2022/05/31 08:27:40;;;;;;;6.40;3.08;;;;;;;15.28;58.04;99395.88;4992815;28;20030;-83
2022/05/31 08:30:06;;;;;;;3.60;2.80;;;;;;;15.36;58.11;99390.41;4989964;28;20026;-85
2022/05/31 08:32:34;;;;;;;4.38;2.70;;;;;;;15.43;58.10;99388.66;5000979;28;20116;-85
2022/05/31 08:34:59;;;;;;;3.60;2.60;;;;;;;15.48;58.19;99393.50;5000196;28;20053;-84
2022/05/31 08:37:24;;;;;;;3.38;2.60;;;;;;;15.44;56.65;99382.25;5000367;28;20400;-83
2022/05/31 08:39:50;;;;;;;2.83;2.42;;;;;;;15.43;55.54;99387.81;4999469;28;20346;-83
2022/05/31 08:42:20;;;;;;;3.33;2.40;;;;;;;15.34;54.88;99391.63;5002654;28;20041;-82
2022/05/31 08:45:00;;;;;;;3.10;2.75;;;;;;;15.34;55.18;99384.38;4997942;28;20049;-82
2022/05/31 08:47:40;;;;;;;3.28;2.70;;;;;;;15.41;55.14;99374.53;4992192;28;20375;-82
2022/05/31 08:53:12;;;;;;;3.55;2.20;;;;;;;15.52;54.90;99383.19;5004409;28;20041;-84
2022/05/31 08:58:35;;;;;;;2.42;2.00;;;;;;;15.65;54.99;99378.06;5009450;28;20279;-82
2022/05/31 09:01:02;;;;;;;2.28;2.08;;;;;;;15.72;55.30;99381.69;5000431;28;20022;-83
2022/05/31 09:03:30;;;;;;;3.03;1.80;;;;;;;15.77;55.16;99376.56;5008596;28;20025;-82
2022/05/31 09:06:26;;;;;;;2.53;1.92;;;;;;;15.85;55.42;99381.03;5007468;28;20076;-82
2022/05/31 09:09:04;;;;;;;3.33;2.85;;;;;;;15.73;53.70;99378.81;5007599;28;20037;-83
2022/05/31 09:11:34;;;;;;;3.55;2.50;;;;;;;15.74;54.56;99383.16;4999648;28;20034;-82
2022/05/31 09:14:23;;;;;;;5.40;2.40;;;;;;;15.75;54.43;99384.00;4998080;28;20037;-82
2022/05/31 09:16:58;;;;;;;3.53;2.50;;;;;;;15.77;54.22;99383.81;5007564;28;20057;-82
2022/05/31 09:19:32;;;;;;;3.95;2.67;;;;;;;15.74;53.00;99375.06;5001025;28;20022;-85
2022/05/31 09:22:00;;;;;;;2.53;2.28;;;;;;;15.72;52.41;99378.97;5014201;28;20028;-82
2022/05/31 09:24:25;;;;;;;3.05;1.88;;;;;;;15.80;53.80;99381.59;4998503;28;20057;-82
2022/05/31 09:26:54;;;;;;;2.33;1.92;;;;;;;15.90;54.20;99378.59;4999047;28;20030;-82
2022/05/31 09:29:22;;;;;;;3.67;2.80;;;;;;;15.92;54.24;99377.41;5008013;28;20357;-83
2022/05/31 09:32:09;;;;;;;2.65;2.15;;;;;;;15.90;53.52;99378.59;5008091;28;20034;-83
2022/05/31 09:34:52;;;;;;;2.90;2.35;;;;;;;15.95;54.07;99378.88;5015827;28;20065;-83
2022/05/31 09:37:36;;;;;;;4.00;2.70;;;;;;;15.92;53.20;99373.88;4998484;28;20038;-83
2022/05/31 09:40:39;;;;;;;4.75;2.72;;;;;;;15.88;52.20;99375.25;5008249;28;20065;-84
2022/05/31 09:43:35;;;;;;;2.78;2.58;;;;;;;15.78;51.67;99370.16;5007542;28;20030;-83
2022/05/31 09:46:17;;;;;;;2.65;2.10;;;;;;;15.80;51.90;99372.66;4987326;28;20443;-83
2022/05/31 09:48:52;;;;;;;2.95;2.20;;;;;;;15.87;52.56;99371.72;5007660;28;20025;-83
2022/05/31 09:51:24;;;;;;;3.40;2.10;;;;;;;15.94;53.19;99366.41;4999192;28;20125;-84
2022/05/31 09:59:27;;;;;;;3.00;2.70;;;;;;;15.99;52.66;99364.00;5008044;28;20115;-84
2022/05/31 10:01:53;;;;;;;2.72;2.15;;;;;;;16.01;53.74;99362.78;4991615;28;20030;-84
2022/05/31 10:04:32;;;;;;;3.03;2.22;;;;;;;16.05;53.04;99358.69;4998642;28;20037;-83
2022/05/31 10:07:03;;;;;;;3.40;2.50;;;;;;;16.08;52.67;99359.34;4997758;28;20029;-83
2022/05/31 10:09:38;;;;;;;4.05;2.03;;;;;;;16.18;53.54;99351.81;4991221;28;20026;-86
2022/05/31 10:12:10;;;;;;;3.20;2.15;;;;;;;16.25;53.89;99358.13;5006768;28;20176;-84
2022/05/31 10:14:43;;;;;;;2.20;2.00;;;;;;;16.28;54.35;99347.78;5014060;28;20021;-83
2022/05/31 10:17:42;;;;;;;4.30;2.60;;;;;;;16.27;53.06;99354.22;4991049;28;20069;-85
2022/05/31 10:20:15;;;;;;;2.63;1.95;;;;;;;16.31;54.11;99347.41;5007257;28;20107;-83
2022/05/31 10:23:04;;;;;;;2.38;2.13;;;;;;;16.30;54.43;99334.94;4991688;28;20032;-83
2022/05/31 10:25:41;;;;;;;2.90;2.05;;;;;;;16.36;54.57;99341.44;4998764;28;20531;-83
2022/05/31 10:28:32;;;;;;;3.13;2.30;;;;;;;16.39;54.61;99346.44;4996807;28;20022;-83
2022/05/31 10:31:13;;;;;;;2.17;1.90;;;;;;;16.41;54.57;99335.47;4994895;28;20079;-84
2022/05/31 10:33:39;;;;;;;2.47;2.28;;;;;;;16.44;54.79;99332.38;5013466;28;20062;-83
2022/05/31 10:36:15;;;;;;;3.40;2.72;;;;;;;16.41;51.62;99343.56;5007161;28;20029;-84
2022/05/31 10:38:42;;;;;;;2.40;2.17;;;;;;;16.41;51.47;99343.56;5007834;28;20030;-83
2022/05/31 10:41:15;;;;;;;3.13;1.70;;;;;;;16.41;51.89;99338.16;4992975;28;20033;-85
2022/05/31 10:43:45;;;;;;;3.58;2.20;;;;;;;16.45;51.71;99334.88;5001956;28;20105;-84
2022/05/31 10:46:13;;;;;;;1.98;1.70;;;;;;;16.51;52.52;99327.88;4994675;28;20411;-83
2022/05/31 10:48:46;;;;;;;2.35;1.50;;;;;;;16.57;52.81;99327.16;5012345;28;20951;-83
2022/05/31 10:51:28;;;;;;;2.45;2.08;;;;;;;16.59;52.85;99322.41;4994451;28;20473;-83
2022/05/31 10:54:20;;;;;;;2.33;2.13;;;;;;;16.61;53.32;99329.28;4994398;28;20369;-84
2022/05/31 10:57:09;;;;;;;2.75;1.75;;;;;;;16.66;53.02;99326.03;5003110;28;20036;-83
2022/05/31 11:00:03;;;;;;;2.50;1.92;;;;;;;16.63;50.64;99326.38;5010599;28;20057;-84
2022/05/31 11:02:32;;;;;;;2.88;2.30;;;;;;;16.61;47.79;99334.66;4979864;28;20065;-85
2022/05/31 11:05:17;;;;;;;;;;;;;;;16.55;49.17;99326.47;5010822;28;20484;-83
2022/05/31 11:13:52;;;;;;;2.28;1.58;;;;;;;16.52;46.16;99346.59;5011428;28;20040;-84
2022/05/31 11:16:37;;;;;;;2.10;1.58;;;;;;;16.51;47.18;99349.47;5002802;28;20084;-86
2022/05/31 11:19:18;;;;;;;1.88;1.70;;;;;;;16.52;47.48;99346.59;5010099;28;20041;-87
2022/05/31 11:21:48;;;;;;;2.65;1.98;;;;;;;16.54;46.15;99357.19;5001515;28;20029;-81
2022/05/31 11:24:17;;;;;;;1.70;1.52;;;;;;;16.55;47.59;99348.06;5020879;28;20026;-82
2022/05/31 11:27:13;;;;;;;2.38;1.50;;;;;;;16.59;47.56;99361.03;5011422;28;20765;-82
2022/05/31 11:29:57;;;;;;;3.00;1.38;;;;;;;16.63;49.05;99353.38;5010588;28;20034;-83
2022/05/31 11:32:58;;;;;;;2.15;1.50;;;;;;;16.66;48.12;99353.84;5011292;28;20025;-81
2022/05/31 11:35:51;;;;;;;1.60;1.40;;;;;;;16.69;49.69;99352.63;5009901;28;20041;-80
2022/05/31 11:38:51;;;;;;;1.27;1.13;;;;;;;16.74;50.25;99357.47;5002778;28;20041;-82
2022/05/31 11:41:42;;;;;;;2.28;1.48;;;;;;;16.77;49.81;99359.78;5001235;28;20042;-80
2022/05/31 11:44:26;;;;;;;2.22;2.00;;;;;;;16.83;49.48;99364.41;5010906;28;20455;-86
2022/05/31 11:47:01;;;;;;;1.83;1.60;;;;;;;16.84;51.00;99357.97;5005622;28;21037;-90
2022/05/31 11:49:53;;;;;;;2.58;1.50;;;;;;;16.88;50.06;99361.97;5007329;28;20022;-90
2022/05/31 11:52:30;;;;;;;1.60;1.40;;;;;;;16.87;48.87;99352.19;4980929;28;20023;-88
2022/05/31 11:58:17;;;;;;;2.05;1.30;;;;;;;16.95;48.90;99350.19;4999111;28;20121;-90
2022/05/31 12:00:53;;;;;;;1.45;1.30;;;;;;;17.05;50.98;99347.19;5013992;28;20050;-88
2022/05/31 12:03:53;;;;;;;2.55;1.90;;;;;;;17.09;49.94;99353.03;5001428;28;20548;-89
2022/05/31 12:06:18;;;;;;;3.78;1.60;;;;;;;17.10;48.54;99343.88;4979313;28;20046;-90
2022/05/31 12:08:52;;;;;;;3.92;2.13;;;;;;;17.11;48.76;99357.22;5017051;28;20029;-90
2022/05/31 12:11:22;;;;;;;2.30;2.10;;;;;;;17.12;48.79;99358.03;4994092;28;20022;-91
2022/05/31 12:13:49;;;;;;;1.52;1.42;;;;;;;17.11;48.63;99349.09;5014794;28;20483;-91
2022/05/31 12:16:15;;;;;;;3.15;2.10;;;;;;;17.10;49.29;99346.59;5014684;28;20054;-91